sensor_id;sensor_type;location;lat;lon;timestamp;P1;durP1;ratioP1;P2;durP2;ratioP2
12316;SDS011;6222;50.866;6.744;2022-08-19T00:01:33;11.80;;;8.07;;
12316;SDS011;6222;50.866;6.744;2022-08-19T00:04:01;9.65;;;7.50;;
12316;SDS011;6222;50.866;6.744;2022-08-19T00:06:29;11.20;;;7.80;;
12316;SDS011;6222;50.866;6.744;2022-08-19T00:08:57;10.07;;;8.07;;
12316;SDS011;6222;50.866;6.744;2022-08-19T00:11:25;12.25;;;8.00;;
12316;SDS011;6222;50.866;6.744;2022-08-19T00:13:53;10.33;;;7.90;;
12316;SDS011;6222;50.866;6.744;2022-08-19T00:16:21;10.25;;;8.00;;
12316;SDS011;6222;50.866;6.744;2022-08-19T00:18:49;10.00;;;8.52;;
12316;SDS011;6222;50.866;6.744;2022-08-19T00:21:16;9.30;;;7.85;;
12316;SDS011;6222;50.866;6.744;2022-08-19T00:23:43;11.93;;;8.52;;
12316;SDS011;6222;50.866;6.744;2022-08-19T00:26:12;9.38;;;8.20;;
12316;SDS011;6222;50.866;6.744;2022-08-19T00:28:39;9.25;;;8.25;;
12316;SDS011;6222;50.866;6.744;2022-08-19T00:31:06;8.77;;;7.85;;
12316;SDS011;6222;50.866;6.744;2022-08-19T00:33:34;9.80;;;8.77;;
12316;SDS011;6222;50.866;6.744;2022-08-19T00:36:02;11.80;;;9.02;;
12316;SDS011;6222;50.866;6.744;2022-08-19T00:38:30;10.32;;;9.23;;
12316;SDS011;6222;50.866;6.744;2022-08-19T00:40:57;9.18;;;8.10;;
12316;SDS011;6222;50.866;6.744;2022-08-19T00:43:27;9.10;;;8.20;;
12316;SDS011;6222;50.866;6.744;2022-08-19T00:45:54;9.82;;;8.82;;
12316;SDS011;6222;50.866;6.744;2022-08-19T00:48:21;9.57;;;8.57;;
12316;SDS011;6222;50.866;6.744;2022-08-19T00:50:49;9.93;;;8.60;;
12316;SDS011;6222;50.866;6.744;2022-08-19T00:53:19;9.65;;;8.63;;
12316;SDS011;6222;50.866;6.744;2022-08-19T00:55:47;9.77;;;8.67;;
12316;SDS011;6222;50.866;6.744;2022-08-19T00:58:15;10.90;;;9.10;;
12316;SDS011;6222;50.866;6.744;2022-08-19T01:00:44;10.95;;;9.13;;
12316;SDS011;6222;50.866;6.744;2022-08-19T01:03:12;11.18;;;9.27;;
12316;SDS011;6222;50.866;6.744;2022-08-19T01:05:41;10.50;;;9.40;;
12316;SDS011;6222;50.866;6.744;2022-08-19T01:08:09;11.38;;;9.63;;
12316;SDS011;6222;50.866;6.744;2022-08-19T01:10:37;11.32;;;9.63;;
12316;SDS011;6222;50.866;6.744;2022-08-19T01:13:05;11.73;;;10.40;;
12316;SDS011;6222;50.866;6.744;2022-08-19T01:15:39;10.73;;;9.63;;
12316;SDS011;6222;50.866;6.744;2022-08-19T01:18:09;11.52;;;10.13;;
12316;SDS011;6222;50.866;6.744;2022-08-19T01:20:37;11.45;;;10.23;;
12316;SDS011;6222;50.866;6.744;2022-08-19T01:23:07;11.55;;;10.32;;
12316;SDS011;6222;50.866;6.744;2022-08-19T01:25:35;11.60;;;10.35;;
12316;SDS011;6222;50.866;6.744;2022-08-19T01:28:03;10.88;;;9.63;;
12316;SDS011;6222;50.866;6.744;2022-08-19T01:30:31;11.00;;;9.80;;
12316;SDS011;6222;50.866;6.744;2022-08-19T01:32:59;11.32;;;9.88;;
12316;SDS011;6222;50.866;6.744;2022-08-19T01:35:27;12.38;;;10.20;;
12316;SDS011;6222;50.866;6.744;2022-08-19T01:37:56;12.57;;;11.00;;
12316;SDS011;6222;50.866;6.744;2022-08-19T01:40:26;11.88;;;10.57;;
12316;SDS011;6222;50.866;6.744;2022-08-19T01:42:54;12.02;;;9.95;;
12316;SDS011;6222;50.866;6.744;2022-08-19T01:45:22;11.13;;;9.90;;
12316;SDS011;6222;50.866;6.744;2022-08-19T01:47:51;11.93;;;10.25;;
12316;SDS011;6222;50.866;6.744;2022-08-19T01:50:19;10.77;;;9.60;;
12316;SDS011;6222;50.866;6.744;2022-08-19T01:52:46;11.63;;;9.80;;
12316;SDS011;6222;50.866;6.744;2022-08-19T01:55:15;12.65;;;9.77;;
12316;SDS011;6222;50.866;6.744;2022-08-19T01:57:44;13.27;;;10.10;;
12316;SDS011;6222;50.866;6.744;2022-08-19T02:00:13;11.27;;;8.93;;
12316;SDS011;6222;50.866;6.744;2022-08-19T02:02:41;10.18;;;9.15;;
12316;SDS011;6222;50.866;6.744;2022-08-19T02:05:09;10.70;;;9.60;;
12316;SDS011;6222;50.866;6.744;2022-08-19T02:07:36;11.50;;;10.30;;
12316;SDS011;6222;50.866;6.744;2022-08-19T02:10:04;11.27;;;10.02;;
12316;SDS011;6222;50.866;6.744;2022-08-19T02:12:32;12.00;;;10.40;;
12316;SDS011;6222;50.866;6.744;2022-08-19T02:15:02;12.57;;;9.87;;
12316;SDS011;6222;50.866;6.744;2022-08-19T02:17:31;11.25;;;9.50;;
12316;SDS011;6222;50.866;6.744;2022-08-19T02:19:58;11.20;;;9.90;;
12316;SDS011;6222;50.866;6.744;2022-08-19T02:22:26;13.00;;;10.18;;
12316;SDS011;6222;50.866;6.744;2022-08-19T02:24:53;12.23;;;10.13;;
12316;SDS011;6222;50.866;6.744;2022-08-19T02:27:21;11.85;;;9.52;;
12316;SDS011;6222;50.866;6.744;2022-08-19T02:29:48;10.13;;;9.07;;
12316;SDS011;6222;50.866;6.744;2022-08-19T02:32:17;11.85;;;9.38;;
12316;SDS011;6222;50.866;6.744;2022-08-19T02:34:45;11.43;;;10.05;;
12316;SDS011;6222;50.866;6.744;2022-08-19T02:37:12;11.45;;;9.85;;
12316;SDS011;6222;50.866;6.744;2022-08-19T02:39:54;12.98;;;10.75;;
12316;SDS011;6222;50.866;6.744;2022-08-19T02:42:21;14.67;;;11.37;;
12316;SDS011;6222;50.866;6.744;2022-08-19T02:44:48;12.45;;;9.90;;
12316;SDS011;6222;50.866;6.744;2022-08-19T02:47:15;13.95;;;10.18;;
12316;SDS011;6222;50.866;6.744;2022-08-19T02:49:45;11.48;;;9.48;;
12316;SDS011;6222;50.866;6.744;2022-08-19T02:52:13;12.68;;;9.57;;
12316;SDS011;6222;50.866;6.744;2022-08-19T02:54:41;11.70;;;9.70;;
12316;SDS011;6222;50.866;6.744;2022-08-19T02:57:08;12.43;;;9.40;;
12316;SDS011;6222;50.866;6.744;2022-08-19T02:59:35;14.52;;;9.80;;
12316;SDS011;6222;50.866;6.744;2022-08-19T03:02:02;12.07;;;9.70;;
12316;SDS011;6222;50.866;6.744;2022-08-19T03:04:30;13.18;;;9.88;;
12316;SDS011;6222;50.866;6.744;2022-08-19T03:06:58;13.18;;;9.93;;
12316;SDS011;6222;50.866;6.744;2022-08-19T03:09:25;11.90;;;9.97;;
12316;SDS011;6222;50.866;6.744;2022-08-19T03:11:52;13.52;;;9.45;;
12316;SDS011;6222;50.866;6.744;2022-08-19T03:14:19;13.13;;;10.05;;
12316;SDS011;6222;50.866;6.744;2022-08-19T03:16:49;14.38;;;10.90;;
12316;SDS011;6222;50.866;6.744;2022-08-19T03:19:17;13.73;;;10.90;;
12316;SDS011;6222;50.866;6.744;2022-08-19T03:21:46;12.95;;;10.45;;
12316;SDS011;6222;50.866;6.744;2022-08-19T03:24:14;12.80;;;10.88;;
12316;SDS011;6222;50.866;6.744;2022-08-19T03:26:43;14.87;;;11.17;;
12316;SDS011;6222;50.866;6.744;2022-08-19T03:29:10;15.67;;;11.53;;
12316;SDS011;6222;50.866;6.744;2022-08-19T03:31:38;14.00;;;11.57;;
12316;SDS011;6222;50.866;6.744;2022-08-19T03:34:06;15.17;;;11.40;;
12316;SDS011;6222;50.866;6.744;2022-08-19T03:36:33;16.27;;;11.67;;
12316;SDS011;6222;50.866;6.744;2022-08-19T03:39:00;15.23;;;11.60;;
12316;SDS011;6222;50.866;6.744;2022-08-19T03:41:30;13.90;;;11.23;;
12316;SDS011;6222;50.866;6.744;2022-08-19T03:43:57;17.27;;;12.52;;
12316;SDS011;6222;50.866;6.744;2022-08-19T03:46:26;17.17;;;12.97;;
12316;SDS011;6222;50.866;6.744;2022-08-19T03:48:54;18.50;;;13.32;;
12316;SDS011;6222;50.866;6.744;2022-08-19T03:51:23;16.17;;;12.55;;
12316;SDS011;6222;50.866;6.744;2022-08-19T03:53:50;17.05;;;12.45;;
12316;SDS011;6222;50.866;6.744;2022-08-19T03:56:18;17.23;;;12.25;;
12316;SDS011;6222;50.866;6.744;2022-08-19T03:58:46;17.33;;;13.35;;
12316;SDS011;6222;50.866;6.744;2022-08-19T04:01:14;18.10;;;13.13;;
12316;SDS011;6222;50.866;6.744;2022-08-19T04:03:42;16.67;;;12.77;;
12316;SDS011;6222;50.866;6.744;2022-08-19T04:06:11;18.33;;;13.40;;
12316;SDS011;6222;50.866;6.744;2022-08-19T04:08:38;15.98;;;12.85;;
12316;SDS011;6222;50.866;6.744;2022-08-19T04:11:07;17.42;;;11.98;;
12316;SDS011;6222;50.866;6.744;2022-08-19T04:13:34;15.68;;;12.63;;
12316;SDS011;6222;50.866;6.744;2022-08-19T04:16:03;16.52;;;12.50;;
12316;SDS011;6222;50.866;6.744;2022-08-19T04:18:30;16.52;;;12.65;;
12316;SDS011;6222;50.866;6.744;2022-08-19T04:20:57;16.13;;;11.75;;
12316;SDS011;6222;50.866;6.744;2022-08-19T04:23:25;16.88;;;12.35;;
12316;SDS011;6222;50.866;6.744;2022-08-19T04:25:53;16.42;;;11.68;;
12316;SDS011;6222;50.866;6.744;2022-08-19T04:28:21;15.98;;;11.77;;
12316;SDS011;6222;50.866;6.744;2022-08-19T04:30:50;15.43;;;12.23;;
12316;SDS011;6222;50.866;6.744;2022-08-19T04:33:20;16.13;;;12.60;;
12316;SDS011;6222;50.866;6.744;2022-08-19T04:35:48;18.58;;;13.13;;
12316;SDS011;6222;50.866;6.744;2022-08-19T04:38:15;16.85;;;13.27;;
12316;SDS011;6222;50.866;6.744;2022-08-19T04:40:43;17.33;;;13.48;;
12316;SDS011;6222;50.866;6.744;2022-08-19T04:43:29;16.53;;;12.83;;
12316;SDS011;6222;50.866;6.744;2022-08-19T04:45:56;18.50;;;13.32;;
12316;SDS011;6222;50.866;6.744;2022-08-19T04:48:25;19.23;;;14.10;;
12316;SDS011;6222;50.866;6.744;2022-08-19T04:50:52;16.65;;;13.63;;
12316;SDS011;6222;50.866;6.744;2022-08-19T04:53:22;18.80;;;13.40;;
12316;SDS011;6222;50.866;6.744;2022-08-19T04:55:50;18.27;;;13.43;;
12316;SDS011;6222;50.866;6.744;2022-08-19T04:58:17;17.67;;;13.90;;
12316;SDS011;6222;50.866;6.744;2022-08-19T05:00:44;17.95;;;13.88;;
12316;SDS011;6222;50.866;6.744;2022-08-19T05:03:11;21.42;;;15.30;;
12316;SDS011;6222;50.866;6.744;2022-08-19T05:05:42;19.80;;;14.40;;
12316;SDS011;6222;50.866;6.744;2022-08-19T05:08:09;19.08;;;14.50;;
12316;SDS011;6222;50.866;6.744;2022-08-19T05:10:36;19.60;;;15.38;;
12316;SDS011;6222;50.866;6.744;2022-08-19T05:13:04;23.70;;;15.93;;
12316;SDS011;6222;50.866;6.744;2022-08-19T05:15:31;22.67;;;15.98;;
12316;SDS011;6222;50.866;6.744;2022-08-19T05:17:58;22.17;;;16.42;;
12316;SDS011;6222;50.866;6.744;2022-08-19T05:20:44;21.67;;;15.98;;
12316;SDS011;6222;50.866;6.744;2022-08-19T05:23:29;25.05;;;17.00;;
12316;SDS011;6222;50.866;6.744;2022-08-19T05:25:56;25.30;;;17.88;;
12316;SDS011;6222;50.866;6.744;2022-08-19T05:28:23;23.33;;;16.92;;
12316;SDS011;6222;50.866;6.744;2022-08-19T05:30:50;24.10;;;16.83;;
12316;SDS011;6222;50.866;6.744;2022-08-19T05:33:20;24.75;;;16.85;;
12316;SDS011;6222;50.866;6.744;2022-08-19T05:35:49;23.70;;;16.35;;
12316;SDS011;6222;50.866;6.744;2022-08-19T05:38:17;24.17;;;18.73;;
12316;SDS011;6222;50.866;6.744;2022-08-19T05:40:45;24.80;;;20.10;;
12316;SDS011;6222;50.866;6.744;2022-08-19T05:43:13;23.90;;;18.77;;
12316;SDS011;6222;50.866;6.744;2022-08-19T05:45:41;24.73;;;19.35;;
12316;SDS011;6222;50.866;6.744;2022-08-19T05:48:09;24.43;;;18.40;;
12316;SDS011;6222;50.866;6.744;2022-08-19T05:50:37;25.27;;;19.90;;
12316;SDS011;6222;50.866;6.744;2022-08-19T05:53:05;23.13;;;18.70;;
12316;SDS011;6222;50.866;6.744;2022-08-19T05:55:34;24.87;;;19.47;;
12316;SDS011;6222;50.866;6.744;2022-08-19T05:58:03;24.92;;;19.80;;
12316;SDS011;6222;50.866;6.744;2022-08-19T06:00:32;25.63;;;20.60;;
12316;SDS011;6222;50.866;6.744;2022-08-19T06:02:59;22.27;;;18.27;;
12316;SDS011;6222;50.866;6.744;2022-08-19T06:05:28;22.40;;;18.60;;
12316;SDS011;6222;50.866;6.744;2022-08-19T06:07:55;25.33;;;19.35;;
12316;SDS011;6222;50.866;6.744;2022-08-19T06:10:25;26.27;;;20.20;;
12316;SDS011;6222;50.866;6.744;2022-08-19T06:12:52;26.08;;;20.50;;
12316;SDS011;6222;50.866;6.744;2022-08-19T06:15:21;27.20;;;21.50;;
12316;SDS011;6222;50.866;6.744;2022-08-19T06:17:51;25.55;;;20.38;;
12316;SDS011;6222;50.866;6.744;2022-08-19T06:20:18;26.98;;;20.70;;
12316;SDS011;6222;50.866;6.744;2022-08-19T06:22:47;26.05;;;21.35;;
12316;SDS011;6222;50.866;6.744;2022-08-19T06:25:15;29.00;;;21.92;;
12316;SDS011;6222;50.866;6.744;2022-08-19T06:27:44;31.48;;;23.63;;
12316;SDS011;6222;50.866;6.744;2022-08-19T06:30:12;31.80;;;23.95;;
12316;SDS011;6222;50.866;6.744;2022-08-19T06:32:39;34.20;;;25.05;;
12316;SDS011;6222;50.866;6.744;2022-08-19T06:35:07;32.58;;;24.23;;
12316;SDS011;6222;50.866;6.744;2022-08-19T06:37:36;34.67;;;24.92;;
12316;SDS011;6222;50.866;6.744;2022-08-19T06:40:03;33.47;;;24.30;;
12316;SDS011;6222;50.866;6.744;2022-08-19T06:42:31;34.40;;;24.75;;
12316;SDS011;6222;50.866;6.744;2022-08-19T06:44:59;35.65;;;26.23;;
12316;SDS011;6222;50.866;6.744;2022-08-19T06:47:28;36.42;;;26.15;;
12316;SDS011;6222;50.866;6.744;2022-08-19T06:49:57;36.03;;;25.88;;
12316;SDS011;6222;50.866;6.744;2022-08-19T06:52:26;35.28;;;26.23;;
12316;SDS011;6222;50.866;6.744;2022-08-19T06:54:54;31.57;;;23.60;;
12316;SDS011;6222;50.866;6.744;2022-08-19T06:57:22;34.65;;;25.45;;
12316;SDS011;6222;50.866;6.744;2022-08-19T06:59:49;33.63;;;24.23;;
12316;SDS011;6222;50.866;6.744;2022-08-19T07:02:18;32.37;;;24.43;;
12316;SDS011;6222;50.866;6.744;2022-08-19T07:04:45;33.88;;;25.08;;
12316;SDS011;6222;50.866;6.744;2022-08-19T07:07:13;33.08;;;24.35;;
12316;SDS011;6222;50.866;6.744;2022-08-19T07:09:41;31.75;;;23.45;;
12316;SDS011;6222;50.866;6.744;2022-08-19T07:12:10;31.00;;;23.38;;
12316;SDS011;6222;50.866;6.744;2022-08-19T07:14:38;31.30;;;23.47;;
12316;SDS011;6222;50.866;6.744;2022-08-19T07:17:07;33.63;;;23.90;;
12316;SDS011;6222;50.866;6.744;2022-08-19T07:19:36;32.58;;;24.13;;
12316;SDS011;6222;50.866;6.744;2022-08-19T07:22:05;32.53;;;24.45;;
12316;SDS011;6222;50.866;6.744;2022-08-19T07:24:33;35.22;;;24.73;;
12316;SDS011;6222;50.866;6.744;2022-08-19T07:27:00;40.03;;;26.67;;
12316;SDS011;6222;50.866;6.744;2022-08-19T07:29:28;34.35;;;25.02;;
12316;SDS011;6222;50.866;6.744;2022-08-19T07:31:58;35.67;;;25.63;;
12316;SDS011;6222;50.866;6.744;2022-08-19T07:34:25;39.28;;;27.00;;
12316;SDS011;6222;50.866;6.744;2022-08-19T07:36:54;38.60;;;26.83;;
12316;SDS011;6222;50.866;6.744;2022-08-19T07:39:23;43.83;;;29.08;;
12316;SDS011;6222;50.866;6.744;2022-08-19T07:41:51;43.47;;;29.58;;
12316;SDS011;6222;50.866;6.744;2022-08-19T07:44:19;43.33;;;29.42;;
12316;SDS011;6222;50.866;6.744;2022-08-19T07:46:48;43.53;;;28.52;;
12316;SDS011;6222;50.866;6.744;2022-08-19T07:49:17;44.00;;;30.05;;
12316;SDS011;6222;50.866;6.744;2022-08-19T07:51:45;41.60;;;29.23;;
12316;SDS011;6222;50.866;6.744;2022-08-19T07:54:14;45.55;;;30.00;;
12316;SDS011;6222;50.866;6.744;2022-08-19T07:56:41;45.83;;;29.65;;
12316;SDS011;6222;50.866;6.744;2022-08-19T07:59:08;47.67;;;29.90;;
12316;SDS011;6222;50.866;6.744;2022-08-19T08:01:35;46.00;;;30.48;;
12316;SDS011;6222;50.866;6.744;2022-08-19T08:04:02;43.80;;;28.80;;
12316;SDS011;6222;50.866;6.744;2022-08-19T08:06:47;46.15;;;29.45;;
12316;SDS011;6222;50.866;6.744;2022-08-19T08:09:35;47.50;;;30.33;;
12316;SDS011;6222;50.866;6.744;2022-08-19T08:12:03;43.72;;;29.63;;
12316;SDS011;6222;50.866;6.744;2022-08-19T08:14:34;42.42;;;28.73;;
12316;SDS011;6222;50.866;6.744;2022-08-19T08:17:02;42.83;;;27.88;;
12316;SDS011;6222;50.866;6.744;2022-08-19T08:19:29;42.13;;;28.25;;
12316;SDS011;6222;50.866;6.744;2022-08-19T08:21:58;40.87;;;27.53;;
12316;SDS011;6222;50.866;6.744;2022-08-19T08:24:25;40.80;;;27.10;;
12316;SDS011;6222;50.866;6.744;2022-08-19T08:26:54;36.90;;;25.73;;
12316;SDS011;6222;50.866;6.744;2022-08-19T08:29:22;38.10;;;26.02;;
12316;SDS011;6222;50.866;6.744;2022-08-19T08:31:50;40.67;;;27.52;;
12316;SDS011;6222;50.866;6.744;2022-08-19T08:34:18;38.67;;;26.70;;
12316;SDS011;6222;50.866;6.744;2022-08-19T08:36:46;35.60;;;24.98;;
12316;SDS011;6222;50.866;6.744;2022-08-19T08:39:14;39.20;;;25.87;;
12316;SDS011;6222;50.866;6.744;2022-08-19T08:41:44;42.63;;;27.17;;
12316;SDS011;6222;50.866;6.744;2022-08-19T08:44:16;37.47;;;25.85;;
12316;SDS011;6222;50.866;6.744;2022-08-19T08:46:45;35.80;;;24.60;;
12316;SDS011;6222;50.866;6.744;2022-08-19T08:49:17;36.42;;;24.65;;
12316;SDS011;6222;50.866;6.744;2022-08-19T08:51:47;36.33;;;23.47;;
12316;SDS011;6222;50.866;6.744;2022-08-19T08:54:17;30.23;;;21.83;;
12316;SDS011;6222;50.866;6.744;2022-08-19T08:56:46;32.33;;;22.20;;
12316;SDS011;6222;50.866;6.744;2022-08-19T08:59:18;25.33;;;19.63;;
12316;SDS011;6222;50.866;6.744;2022-08-19T09:01:46;30.33;;;23.45;;
12316;SDS011;6222;50.866;6.744;2022-08-19T09:04:13;22.67;;;16.70;;
12316;SDS011;6222;50.866;6.744;2022-08-19T09:06:53;24.42;;;16.45;;
12316;SDS011;6222;50.866;6.744;2022-08-19T09:09:23;20.90;;;15.10;;
12316;SDS011;6222;50.866;6.744;2022-08-19T09:11:56;18.90;;;14.43;;
12316;SDS011;6222;50.866;6.744;2022-08-19T09:14:32;16.95;;;13.27;;
12316;SDS011;6222;50.866;6.744;2022-08-19T09:17:00;17.10;;;13.67;;
12316;SDS011;6222;50.866;6.744;2022-08-19T09:19:28;19.35;;;14.07;;
12316;SDS011;6222;50.866;6.744;2022-08-19T09:21:56;17.98;;;13.30;;
12316;SDS011;6222;50.866;6.744;2022-08-19T09:24:25;18.30;;;14.03;;
12316;SDS011;6222;50.866;6.744;2022-08-19T09:26:52;17.65;;;13.25;;
12316;SDS011;6222;50.866;6.744;2022-08-19T09:29:19;15.18;;;11.88;;
12316;SDS011;6222;50.866;6.744;2022-08-19T09:31:48;14.52;;;11.80;;
12316;SDS011;6222;50.866;6.744;2022-08-19T09:34:15;17.25;;;12.27;;
12316;SDS011;6222;50.866;6.744;2022-08-19T09:36:44;14.15;;;10.70;;
12316;SDS011;6222;50.866;6.744;2022-08-19T09:39:11;15.20;;;12.05;;
12316;SDS011;6222;50.866;6.744;2022-08-19T09:41:39;13.63;;;10.70;;
12316;SDS011;6222;50.866;6.744;2022-08-19T09:44:06;13.10;;;10.13;;
12316;SDS011;6222;50.866;6.744;2022-08-19T09:46:33;11.40;;;9.48;;
12316;SDS011;6222;50.866;6.744;2022-08-19T09:49:02;14.45;;;10.60;;
12316;SDS011;6222;50.866;6.744;2022-08-19T09:51:30;12.80;;;9.93;;
12316;SDS011;6222;50.866;6.744;2022-08-19T09:53:59;12.05;;;9.15;;
12316;SDS011;6222;50.866;6.744;2022-08-19T09:56:26;12.65;;;9.75;;
12316;SDS011;6222;50.866;6.744;2022-08-19T09:58:54;11.68;;;9.55;;
12316;SDS011;6222;50.866;6.744;2022-08-19T10:01:21;12.75;;;9.27;;
12316;SDS011;6222;50.866;6.744;2022-08-19T10:03:50;12.48;;;10.63;;
12316;SDS011;6222;50.866;6.744;2022-08-19T10:06:19;12.88;;;10.23;;
12316;SDS011;6222;50.866;6.744;2022-08-19T10:08:47;14.17;;;10.50;;
12316;SDS011;6222;50.866;6.744;2022-08-19T10:11:14;17.23;;;10.68;;
12316;SDS011;6222;50.866;6.744;2022-08-19T10:13:42;17.23;;;13.43;;
12316;SDS011;6222;50.866;6.744;2022-08-19T10:16:12;16.80;;;12.43;;
12316;SDS011;6222;50.866;6.744;2022-08-19T10:18:40;16.00;;;11.87;;
12316;SDS011;6222;50.866;6.744;2022-08-19T10:21:09;17.40;;;13.50;;
12316;SDS011;6222;50.866;6.744;2022-08-19T10:23:38;19.03;;;14.23;;
12316;SDS011;6222;50.866;6.744;2022-08-19T10:26:09;16.60;;;12.63;;
12316;SDS011;6222;50.866;6.744;2022-08-19T10:28:37;14.43;;;12.40;;
12316;SDS011;6222;50.866;6.744;2022-08-19T10:31:04;16.97;;;13.00;;
12316;SDS011;6222;50.866;6.744;2022-08-19T10:33:32;15.13;;;12.45;;
12316;SDS011;6222;50.866;6.744;2022-08-19T10:36:00;13.48;;;10.40;;
12316;SDS011;6222;50.866;6.744;2022-08-19T10:38:27;12.65;;;10.68;;
12316;SDS011;6222;50.866;6.744;2022-08-19T10:40:56;14.30;;;11.88;;
12316;SDS011;6222;50.866;6.744;2022-08-19T10:43:23;14.88;;;11.70;;
12316;SDS011;6222;50.866;6.744;2022-08-19T10:45:54;14.77;;;10.88;;
12316;SDS011;6222;50.866;6.744;2022-08-19T10:48:24;14.63;;;11.43;;
12316;SDS011;6222;50.866;6.744;2022-08-19T10:50:51;13.25;;;10.57;;
12316;SDS011;6222;50.866;6.744;2022-08-19T10:53:32;11.70;;;9.07;;
12316;SDS011;6222;50.866;6.744;2022-08-19T10:56:01;10.38;;;8.77;;
12316;SDS011;6222;50.866;6.744;2022-08-19T10:58:45;12.63;;;9.32;;
12316;SDS011;6222;50.866;6.744;2022-08-19T11:01:13;11.98;;;8.40;;
12316;SDS011;6222;50.866;6.744;2022-08-19T11:03:41;11.13;;;8.67;;
12316;SDS011;6222;50.866;6.744;2022-08-19T11:06:10;9.50;;;8.38;;
12316;SDS011;6222;50.866;6.744;2022-08-19T11:08:38;11.82;;;9.15;;
12316;SDS011;6222;50.866;6.744;2022-08-19T11:11:08;13.00;;;10.47;;
12316;SDS011;6222;50.866;6.744;2022-08-19T11:13:36;11.10;;;9.60;;
12316;SDS011;6222;50.866;6.744;2022-08-19T11:16:04;17.42;;;11.13;;
12316;SDS011;6222;50.866;6.744;2022-08-19T11:18:33;11.63;;;9.85;;
12316;SDS011;6222;50.866;6.744;2022-08-19T11:21:11;13.20;;;9.73;;
12316;SDS011;6222;50.866;6.744;2022-08-19T11:23:39;17.42;;;12.40;;
12316;SDS011;6222;50.866;6.744;2022-08-19T11:26:07;17.15;;;13.38;;
12316;SDS011;6222;50.866;6.744;2022-08-19T11:28:34;14.18;;;12.18;;
12316;SDS011;6222;50.866;6.744;2022-08-19T11:31:02;18.52;;;14.80;;
12316;SDS011;6222;50.866;6.744;2022-08-19T11:33:29;19.38;;;14.40;;
12316;SDS011;6222;50.866;6.744;2022-08-19T11:35:56;15.45;;;12.65;;
12316;SDS011;6222;50.866;6.744;2022-08-19T11:38:24;17.35;;;13.90;;
12316;SDS011;6222;50.866;6.744;2022-08-19T11:40:55;19.40;;;14.25;;
12316;SDS011;6222;50.866;6.744;2022-08-19T11:43:23;20.80;;;14.45;;
12316;SDS011;6222;50.866;6.744;2022-08-19T11:45:51;17.42;;;13.90;;
12316;SDS011;6222;50.866;6.744;2022-08-19T11:48:18;19.33;;;14.75;;
12316;SDS011;6222;50.866;6.744;2022-08-19T11:50:47;16.37;;;12.97;;
12316;SDS011;6222;50.866;6.744;2022-08-19T11:53:14;18.48;;;12.70;;
12316;SDS011;6222;50.866;6.744;2022-08-19T11:55:41;19.35;;;14.57;;
12316;SDS011;6222;50.866;6.744;2022-08-19T11:58:09;17.67;;;13.07;;
12316;SDS011;6222;50.866;6.744;2022-08-19T12:00:39;17.10;;;12.80;;
12316;SDS011;6222;50.866;6.744;2022-08-19T12:03:06;20.42;;;14.35;;
12316;SDS011;6222;50.866;6.744;2022-08-19T12:05:33;17.48;;;13.23;;
12316;SDS011;6222;50.866;6.744;2022-08-19T12:08:03;17.23;;;12.93;;
12316;SDS011;6222;50.866;6.744;2022-08-19T12:10:30;17.25;;;12.90;;
12316;SDS011;6222;50.866;6.744;2022-08-19T12:12:57;16.67;;;12.32;;
12316;SDS011;6222;50.866;6.744;2022-08-19T12:15:25;13.75;;;10.70;;
12316;SDS011;6222;50.866;6.744;2022-08-19T12:17:55;12.68;;;10.45;;
12316;SDS011;6222;50.866;6.744;2022-08-19T12:20:23;9.27;;;7.28;;
12316;SDS011;6222;50.866;6.744;2022-08-19T12:22:51;11.15;;;8.82;;
12316;SDS011;6222;50.866;6.744;2022-08-19T12:25:18;11.52;;;9.00;;
12316;SDS011;6222;50.866;6.744;2022-08-19T12:27:45;8.05;;;6.63;;
12316;SDS011;6222;50.866;6.744;2022-08-19T12:30:13;11.05;;;8.38;;
12316;SDS011;6222;50.866;6.744;2022-08-19T12:32:40;12.52;;;9.65;;
12316;SDS011;6222;50.866;6.744;2022-08-19T12:35:09;12.27;;;9.18;;
12316;SDS011;6222;50.866;6.744;2022-08-19T12:37:36;12.05;;;10.00;;
12316;SDS011;6222;50.866;6.744;2022-08-19T12:40:03;10.20;;;8.23;;
12316;SDS011;6222;50.866;6.744;2022-08-19T12:42:31;10.30;;;8.00;;
12316;SDS011;6222;50.866;6.744;2022-08-19T12:44:58;9.77;;;7.05;;
12316;SDS011;6222;50.866;6.744;2022-08-19T12:47:25;8.90;;;7.30;;
12316;SDS011;6222;50.866;6.744;2022-08-19T12:49:52;9.75;;;7.13;;
12316;SDS011;6222;50.866;6.744;2022-08-19T12:52:22;9.80;;;6.88;;
12316;SDS011;6222;50.866;6.744;2022-08-19T12:54:50;10.43;;;6.87;;
12316;SDS011;6222;50.866;6.744;2022-08-19T12:57:18;8.60;;;6.47;;
12316;SDS011;6222;50.866;6.744;2022-08-19T12:59:45;8.25;;;7.03;;
12316;SDS011;6222;50.866;6.744;2022-08-19T13:02:12;8.97;;;7.50;;
12316;SDS011;6222;50.866;6.744;2022-08-19T13:04:39;11.75;;;8.38;;
12316;SDS011;6222;50.866;6.744;2022-08-19T13:07:07;11.83;;;8.10;;
12316;SDS011;6222;50.866;6.744;2022-08-19T13:09:36;10.30;;;7.75;;
12316;SDS011;6222;50.866;6.744;2022-08-19T13:12:06;11.63;;;8.50;;
12316;SDS011;6222;50.866;6.744;2022-08-19T13:14:37;12.52;;;9.35;;
12316;SDS011;6222;50.866;6.744;2022-08-19T13:17:05;13.03;;;8.80;;
12316;SDS011;6222;50.866;6.744;2022-08-19T13:19:33;9.07;;;6.90;;
12316;SDS011;6222;50.866;6.744;2022-08-19T13:22:02;11.10;;;8.15;;
12316;SDS011;6222;50.866;6.744;2022-08-19T13:24:29;9.93;;;7.90;;
12316;SDS011;6222;50.866;6.744;2022-08-19T13:27:00;10.10;;;7.93;;
12316;SDS011;6222;50.866;6.744;2022-08-19T13:29:27;10.93;;;7.75;;
12316;SDS011;6222;50.866;6.744;2022-08-19T13:32:12;11.35;;;7.93;;
12316;SDS011;6222;50.866;6.744;2022-08-19T13:34:56;9.20;;;7.93;;
12316;SDS011;6222;50.866;6.744;2022-08-19T13:37:24;8.93;;;7.10;;
12316;SDS011;6222;50.866;6.744;2022-08-19T13:40:05;8.30;;;6.85;;
12316;SDS011;6222;50.866;6.744;2022-08-19T13:42:37;9.35;;;7.70;;
12316;SDS011;6222;50.866;6.744;2022-08-19T13:45:05;11.33;;;7.20;;
12316;SDS011;6222;50.866;6.744;2022-08-19T13:47:32;9.32;;;7.28;;
12316;SDS011;6222;50.866;6.744;2022-08-19T13:50:00;9.30;;;6.45;;
12316;SDS011;6222;50.866;6.744;2022-08-19T13:52:27;8.13;;;6.25;;
12316;SDS011;6222;50.866;6.744;2022-08-19T13:54:54;8.75;;;6.43;;
12316;SDS011;6222;50.866;6.744;2022-08-19T13:57:23;10.10;;;7.90;;
12316;SDS011;6222;50.866;6.744;2022-08-19T13:59:51;8.98;;;7.30;;
12316;SDS011;6222;50.866;6.744;2022-08-19T14:02:18;9.60;;;7.28;;
12316;SDS011;6222;50.866;6.744;2022-08-19T14:04:45;9.70;;;6.57;;
12316;SDS011;6222;50.866;6.744;2022-08-19T14:07:12;8.07;;;5.78;;
12316;SDS011;6222;50.866;6.744;2022-08-19T14:09:40;7.93;;;5.68;;
12316;SDS011;6222;50.866;6.744;2022-08-19T14:12:07;7.03;;;5.35;;
12316;SDS011;6222;50.866;6.744;2022-08-19T14:14:35;6.43;;;5.22;;
12316;SDS011;6222;50.866;6.744;2022-08-19T14:17:06;6.70;;;5.18;;
12316;SDS011;6222;50.866;6.744;2022-08-19T14:19:34;5.93;;;4.20;;
12316;SDS011;6222;50.866;6.744;2022-08-19T14:22:01;6.07;;;4.10;;
12316;SDS011;6222;50.866;6.744;2022-08-19T14:24:30;4.35;;;3.70;;
12316;SDS011;6222;50.866;6.744;2022-08-19T14:26:57;4.40;;;3.70;;
12316;SDS011;6222;50.866;6.744;2022-08-19T14:29:24;4.22;;;3.28;;
12316;SDS011;6222;50.866;6.744;2022-08-19T14:31:52;4.65;;;3.47;;
12316;SDS011;6222;50.866;6.744;2022-08-19T14:34:22;4.90;;;3.27;;
12316;SDS011;6222;50.866;6.744;2022-08-19T14:36:49;4.13;;;2.63;;
12316;SDS011;6222;50.866;6.744;2022-08-19T14:39:17;3.13;;;2.67;;
12316;SDS011;6222;50.866;6.744;2022-08-19T14:41:44;3.93;;;2.67;;
12316;SDS011;6222;50.866;6.744;2022-08-19T14:44:11;3.88;;;2.53;;
12316;SDS011;6222;50.866;6.744;2022-08-19T14:46:38;3.77;;;2.77;;
12316;SDS011;6222;50.866;6.744;2022-08-19T14:49:06;3.20;;;2.30;;